Time;durP1;ratioP1;P1;durP2;ratioP2;P2;SDS_P1;SDS_P2;PMS_P1;PMS_P2;Temp;Humidity;BMP_temperature;BMP_pressure;BME280_temperature;BME280_humidity;BME280_pressure;Samples;Min_cycle;Max_cycle;Signal;HPM_P1;HPM_P2
2020/12/13 00:02:22;;;;;;;57.05;25.02;;;;;;;6.49;97.74;100568.81;4960913;28;20130;-80
2020/12/13 00:04:48;;;;;;;63.67;26.63;;;;;;;6.47;97.89;100575.53;4970174;28;20080;-80
2020/12/13 00:07:13;;;;;;;63.80;27.23;;;;;;;6.46;97.91;100566.16;4960497;28;20392;-78
2020/12/13 00:09:39;;;;;;;62.60;26.58;;;;;;;6.50;97.85;100566.34;4960630;28;20481;-79
2020/12/13 00:12:04;;;;;;;58.17;26.10;;;;;;;6.58;97.87;100571.72;4961189;28;20119;-78
2020/12/13 00:14:30;;;;;;;65.57;26.35;;;;;;;6.57;97.77;100566.56;4961505;28;20034;-78
2020/12/13 00:16:56;;;;;;;63.28;27.13;;;;;;;6.48;97.90;100572.19;4959454;28;20023;-78
2020/12/13 00:19:21;;;;;;;65.40;26.15;;;;;;;6.48;97.61;100577.28;4965669;28;20064;-78
2020/12/13 00:21:51;;;;;;;65.18;26.63;;;;;;;6.44;97.61;100568.66;4960107;28;20034;-78
2020/12/13 00:24:18;;;;;;;59.97;25.80;;;;;;;6.50;97.59;100573.09;4956585;28;20031;-78
2020/12/13 00:26:43;;;;;;;56.83;24.20;;;;;;;6.45;97.54;100570.38;4961177;28;20023;-78
2020/12/13 00:29:09;;;;;;;51.30;24.60;;;;;;;6.42;97.63;100584.72;4962387;28;20038;-79
2020/12/13 00:31:34;;;;;;;58.22;23.92;;;;;;;6.37;97.67;100579.44;4960877;28;20034;-78
2020/12/13 00:33:59;;;;;;;58.88;25.40;;;;;;;6.36;97.71;100584.50;4961330;28;20095;-78
2020/12/13 00:36:24;;;;;;;57.87;25.13;;;;;;;6.38;97.88;100580.31;4965144;28;20113;-79
2020/12/13 00:38:50;;;;;;;54.50;24.87;;;;;;;6.36;97.61;100592.16;4958533;28;20278;-79
2020/12/13 00:41:16;;;;;;;66.35;27.25;;;;;;;6.36;97.82;100589.59;4956745;28;20027;-78
2020/12/13 00:43:41;;;;;;;62.55;25.48;;;;;;;6.36;97.50;100590.47;4961724;28;20033;-78
2020/12/13 00:46:06;;;;;;;63.78;26.17;;;;;;;6.37;97.96;100597.31;4958545;28;20035;-78
2020/12/13 00:48:31;;;;;;;53.13;24.70;;;;;;;6.39;97.68;100597.38;4964792;28;20023;-78
2020/12/13 00:50:57;;;;;;;64.43;26.07;;;;;;;6.38;97.64;100600.72;4960573;28;20322;-77
2020/12/13 00:53:22;;;;;;;56.15;24.80;;;;;;;6.45;97.85;100603.56;4961601;28;20061;-78
2020/12/13 00:55:47;;;;;;;62.00;24.50;;;;;;;6.41;97.87;100600.84;4962068;28;20027;-78
2020/12/13 00:58:13;;;;;;;61.67;26.50;;;;;;;6.39;98.16;100612.69;4957574;28;20357;-79
2020/12/13 01:00:38;;;;;;;72.60;27.33;;;;;;;6.35;98.00;100609.16;4960641;28;20285;-78
2020/12/13 01:03:03;;;;;;;57.15;23.20;;;;;;;6.34;97.96;100615.06;4960359;28;20031;-78
2020/12/13 01:05:29;;;;;;;62.55;25.67;;;;;;;6.34;97.78;100622.72;4954652;28;20027;-78
2020/12/13 01:07:54;;;;;;;64.15;24.60;;;;;;;6.40;98.04;100622.94;4960442;28;20030;-78
2020/12/13 01:10:21;;;;;;;63.83;25.20;;;;;;;6.41;97.95;100627.22;4958551;28;20110;-78
2020/12/13 01:12:47;;;;;;;61.03;24.90;;;;;;;6.44;97.72;100629.88;4957545;28;20032;-78
2020/12/13 01:15:13;;;;;;;60.85;23.73;;;;;;;6.44;98.12;100631.56;4959132;28;20030;-78
2020/12/13 01:17:38;;;;;;;56.42;23.58;;;;;;;6.40;97.84;100633.13;4965021;28;20043;-79
2020/12/13 01:20:04;;;;;;;56.05;24.08;;;;;;;6.42;98.01;100644.28;4965165;28;20034;-78
2020/12/13 01:22:34;;;;;;;60.20;22.73;;;;;;;6.42;98.01;100639.16;4957119;28;20077;-78
2020/12/13 01:24:59;;;;;;;60.93;22.80;;;;;;;6.41;97.84;100641.66;4953876;28;20034;-78
2020/12/13 01:27:25;;;;;;;54.70;21.10;;;;;;;6.44;98.00;100644.31;4960463;28;21181;-78
2020/12/13 01:29:50;;;;;;;63.10;22.67;;;;;;;6.51;98.23;100648.88;4961557;28;20029;-78
2020/12/13 01:32:15;;;;;;;64.10;20.77;;;;;;;6.54;97.88;100656.63;4960873;28;20393;-78
2020/12/13 01:34:40;;;;;;;65.90;23.20;;;;;;;6.58;98.21;100661.03;4963598;28;20103;-78
2020/12/13 01:37:06;;;;;;;52.73;21.17;;;;;;;6.57;97.95;100649.09;4963843;28;20026;-78
2020/12/13 01:39:31;;;;;;;55.13;21.65;;;;;;;6.55;98.03;100655.81;4963938;28;20105;-77
2020/12/13 01:41:58;;;;;;;49.80;19.23;;;;;;;6.50;98.17;100658.22;4963376;28;20525;-78
2020/12/13 01:44:33;;;;;;;47.47;20.07;;;;;;;6.48;98.25;100666.59;4956434;28;20102;-78
2020/12/13 01:46:59;;;;;;;47.77;19.40;;;;;;;6.44;98.12;100660.50;4968836;28;20581;-78
2020/12/13 01:49:29;;;;;;;56.10;20.67;;;;;;;6.43;98.18;100663.00;4961327;28;20069;-79
2020/12/13 01:54:25;;;;;;;52.33;17.67;;;;;;;6.36;98.26;100671.25;4959432;28;20600;-78
2020/12/13 01:56:53;;;;;;;46.17;18.63;;;;;;;6.32;98.24;100657.50;4963430;28;20504;-79
2020/12/13 01:59:20;;;;;;;58.00;19.53;;;;;;;6.34;98.16;100665.22;4960624;28;20061;-78
2020/12/13 02:01:55;;;;;;;43.93;17.13;;;;;;;6.33;98.17;100671.13;4964102;28;20034;-79
2020/12/13 02:04:22;;;;;;;44.83;18.47;;;;;;;6.31;98.14;100675.31;4957304;28;20023;-78
2020/12/13 02:06:53;;;;;;;51.57;17.73;;;;;;;6.31;98.13;100681.28;4961236;28;20114;-78
2020/12/13 02:09:22;;;;;;;50.23;16.47;;;;;;;6.30;98.07;100682.09;4958130;28;20030;-78
2020/12/13 02:11:47;;;;;;;46.10;16.50;;;;;;;6.32;97.93;100687.25;4958793;28;20088;-78
2020/12/13 02:14:13;;;;;;;38.17;15.13;;;;;;;6.33;97.99;100694.09;4955874;28;20541;-78
2020/12/13 02:16:38;;;;;;;46.95;16.65;;;;;;;6.32;98.01;100697.44;4965185;28;20027;-78
2020/12/13 02:19:04;;;;;;;34.20;13.93;;;;;;;6.29;98.36;100685.44;4962677;28;20026;-78
2020/12/13 02:21:30;;;;;;;;;;;;;;;6.28;98.26;100686.25;4956768;28;20374;-77
2020/12/13 02:23:55;;;;;;;45.00;15.50;;;;;;;6.22;98.55;100692.00;4964438;28;19921;-78
2020/12/13 02:26:22;;;;;;;33.67;12.80;;;;;;;6.19;98.27;100697.00;4961067;28;20541;-78
2020/12/13 02:28:48;;;;;;;35.33;15.33;;;;;;;6.16;98.19;100698.53;4961722;28;20634;-78
2020/12/13 02:31:13;;;;;;;43.60;14.63;;;;;;;6.17;98.11;100697.72;4957393;28;20030;-79
2020/12/13 02:33:39;;;;;;;42.97;14.55;;;;;;;6.18;98.09;100691.84;4962942;28;20108;-78
2020/12/13 02:36:05;;;;;;;42.55;14.30;;;;;;;6.16;98.44;100711.28;4963156;28;20084;-78
2020/12/13 02:38:31;;;;;;;42.30;14.32;;;;;;;6.18;98.40;100699.47;4961416;28;20023;-77
2020/12/13 02:40:57;;;;;;;;;;;;;;;6.21;98.14;100715.78;4961269;28;20035;-77
2020/12/13 02:43:22;;;;;;;42.67;14.57;;;;;;;6.34;98.24;100712.00;4960485;28;19937;-77
2020/12/13 02:45:47;;;;;;;41.50;14.57;;;;;;;6.36;98.20;100720.59;4962834;28;20035;-77
2020/12/13 02:48:12;;;;;;;49.40;17.02;;;;;;;6.34;98.22;100717.09;4963871;28;20041;-78
2020/12/13 02:50:38;;;;;;;47.53;15.38;;;;;;;6.34;98.44;100717.09;4959541;28;20047;-78
2020/12/13 02:53:04;;;;;;;39.50;14.18;;;;;;;6.30;98.33;100722.03;4958198;28;20061;-78
2020/12/13 02:55:29;;;;;;;41.10;14.50;;;;;;;6.24;98.45;100728.66;4959956;28;20027;-78
2020/12/13 02:57:55;;;;;;;49.97;16.23;;;;;;;6.21;98.36;100732.75;4963269;28;20027;-78
2020/12/13 03:00:20;;;;;;;43.00;14.80;;;;;;;6.23;98.18;100733.69;4962037;28;20412;-78
2020/12/13 03:02:45;;;;;;;43.67;15.37;;;;;;;6.28;98.32;100731.31;4960490;28;20109;-79
2020/12/13 03:05:10;;;;;;;35.97;15.13;;;;;;;6.29;98.54;100738.16;4960963;28;20526;-78
2020/12/13 03:07:36;;;;;;;44.67;14.98;;;;;;;6.28;98.33;100737.28;4959824;28;20282;-78
2020/12/13 03:10:03;;;;;;;42.70;15.27;;;;;;;6.29;98.36;100740.69;4965090;28;20031;-77
2020/12/13 03:12:29;;;;;;;38.93;15.03;;;;;;;6.31;98.29;100733.97;4965252;28;20034;-79
2020/12/13 03:14:54;;;;;;;42.47;14.90;;;;;;;6.34;98.61;100744.28;4962813;28;20074;-79
2020/12/13 03:17:20;;;;;;;35.55;14.25;;;;;;;6.36;98.33;100755.44;4968098;28;20121;-78
2020/12/13 03:19:46;;;;;;;47.88;14.95;;;;;;;6.32;98.32;100758.69;4965317;28;20079;-78
2020/12/13 03:22:11;;;;;;;44.60;15.10;;;;;;;6.32;98.34;100756.13;4962482;28;20081;-78
2020/12/13 03:24:36;;;;;;;34.28;13.50;;;;;;;6.33;98.42;100765.53;4962165;28;20039;-78
2020/12/13 03:27:02;;;;;;;44.37;16.33;;;;;;;6.31;98.61;100760.34;4965910;28;20035;-78
2020/12/13 03:29:27;;;;;;;38.88;14.23;;;;;;;6.31;98.55;100769.69;4964797;28;20274;-79
2020/12/13 03:31:53;;;;;;;34.60;14.07;;;;;;;6.32;98.66;100769.75;4961486;28;20045;-78
2020/12/13 03:34:18;;;;;;;33.60;13.40;;;;;;;6.31;98.20;100773.13;4966665;28;20267;-78
2020/12/13 03:36:43;;;;;;;36.58;14.05;;;;;;;6.28;98.55;100773.00;4961084;28;20031;-78
2020/12/13 03:39:08;;;;;;;39.80;14.23;;;;;;;6.27;98.47;100770.38;4962083;28;20031;-78
2020/12/13 03:41:34;;;;;;;39.58;15.10;;;;;;;6.28;98.60;100778.09;4962908;28;20023;-77
2020/12/13 03:43:59;;;;;;;37.65;14.55;;;;;;;6.30;98.43;100775.59;4957757;28;20519;-78
2020/12/13 03:46:24;;;;;;;38.15;14.98;;;;;;;6.30;98.56;100780.72;4964322;28;20030;-78
2020/12/13 03:48:50;;;;;;;36.08;15.30;;;;;;;6.32;98.49;100782.50;4964216;28;20027;-77
2020/12/13 03:51:15;;;;;;;43.70;15.20;;;;;;;6.35;98.54;100784.31;4967791;28;20397;-77
2020/12/13 03:53:40;;;;;;;40.13;15.35;;;;;;;6.37;98.56;100787.78;4956816;28;20031;-77
2020/12/13 03:56:06;;;;;;;38.10;14.60;;;;;;;6.41;98.66;100793.06;4962156;28;20027;-77
2020/12/13 03:58:31;;;;;;;42.33;16.33;;;;;;;6.46;98.51;100789.00;4952487;28;20310;-77
2020/12/13 04:00:57;;;;;;;34.20;14.65;;;;;;;6.49;98.44;100801.00;4967102;28;20051;-76
2020/12/13 04:03:22;;;;;;;38.80;16.75;;;;;;;6.48;98.58;100804.38;4956570;28;20454;-77
2020/12/13 04:05:48;;;;;;;48.25;16.45;;;;;;;6.47;98.39;100806.06;4950853;28;20031;-77
2020/12/13 04:08:14;;;;;;;56.95;17.63;;;;;;;6.46;98.35;100806.00;4966544;28;20407;-77
2020/12/13 04:10:39;;;;;;;45.35;17.58;;;;;;;6.54;98.46;100809.75;4956747;28;20616;-77
2020/12/13 04:13:04;;;;;;;47.53;17.00;;;;;;;6.56;98.36;100810.69;4954922;28;20028;-77
2020/12/13 04:15:30;;;;;;;45.20;16.00;;;;;;;6.53;98.56;100813.13;4962957;28;20029;-77
2020/12/13 04:17:55;;;;;;;52.78;17.08;;;;;;;6.49;98.48;100806.13;4959660;28;20075;-79
2020/12/13 04:20:21;;;;;;;45.17;17.48;;;;;;;6.44;98.55;100811.03;4956306;28;20031;-77
2020/12/13 04:22:46;;;;;;;48.50;17.00;;;;;;;6.41;98.68;100810.94;4961227;28;20035;-77
2020/12/13 04:25:12;;;;;;;48.10;17.23;;;;;;;6.42;98.38;100811.78;4958693;28;20488;-77
2020/12/13 04:27:38;;;;;;;42.58;17.05;;;;;;;6.47;98.39;100812.84;4955142;28;20116;-77
2020/12/13 04:30:05;;;;;;;42.08;16.35;;;;;;;6.48;98.52;100814.59;4957979;28;20526;-77
2020/12/13 04:32:30;;;;;;;42.80;16.63;;;;;;;6.48;98.50;100819.69;4954985;28;20037;-78
2020/12/13 04:34:56;;;;;;;42.33;17.30;;;;;;;6.52;98.48;100817.34;4959662;28;20019;-77
2020/12/13 04:37:23;;;;;;;38.20;16.77;;;;;;;6.54;98.62;100823.38;4965262;28;20046;-77
2020/12/13 04:39:51;;;;;;;39.70;16.20;;;;;;;6.53;98.35;100825.88;4966995;28;20031;-77
2020/12/13 04:42:16;;;;;;;38.20;15.53;;;;;;;6.53;98.53;100823.31;4955086;28;20031;-77
2020/12/13 04:44:42;;;;;;;44.38;16.15;;;;;;;6.53;98.23;100823.31;4960777;28;20027;-77
2020/12/13 04:47:07;;;;;;;46.33;17.30;;;;;;;6.66;98.35;100827.22;4957584;28;20073;-78
2020/12/13 04:49:35;;;;;;;42.20;17.75;;;;;;;6.68;98.32;100831.56;4963372;28;20026;-77
2020/12/13 04:52:03;;;;;;;45.80;18.53;;;;;;;6.66;98.33;100833.19;4961906;28;20023;-77
2020/12/13 04:54:29;;;;;;;42.80;17.50;;;;;;;6.64;98.27;100837.38;4959462;28;20026;-76
2020/12/13 04:56:57;;;;;;;44.70;17.30;;;;;;;6.61;98.27;100839.81;4956829;28;20102;-77
2020/12/13 04:59:24;;;;;;;41.83;16.07;;;;;;;6.58;98.37;100839.69;4969983;28;20496;-78
2020/12/13 05:01:49;;;;;;;51.70;18.10;;;;;;;6.66;98.27;100845.09;4967541;28;20019;-78
2020/12/13 05:04:15;;;;;;;47.45;16.40;;;;;;;6.64;98.46;100837.38;4958102;28;20369;-75
2020/12/13 05:06:41;;;;;;;;;;;;;;;6.71;98.55;100841.91;4957949;28;20023;-75
2020/12/13 05:09:09;;;;;;;42.40;16.97;;;;;;;6.69;98.34;100840.97;4958453;28;19960;-76
2020/12/13 05:11:35;;;;;;;44.77;16.93;;;;;;;6.66;98.33;100845.09;4959316;28;20046;-76
2020/12/13 05:14:02;;;;;;;35.75;16.38;;;;;;;6.87;98.13;100845.94;4958284;28;20066;-76
2020/12/13 05:16:27;;;;;;;43.03;18.57;;;;;;;6.86;98.30;100842.50;4961367;28;20041;-75
2020/12/13 05:18:52;;;;;;;36.10;16.80;;;;;;;6.92;97.86;100841.88;4963229;28;20019;-77
2020/12/13 05:21:22;;;;;;;33.13;15.87;;;;;;;6.90;97.78;100846.03;4956777;28;20888;-78
2020/12/13 05:23:49;;;;;;;37.90;17.20;;;;;;;6.91;97.68;100839.25;4962831;28;20114;-77
2020/12/13 05:26:20;;;;;;;31.65;16.73;;;;;;;6.93;97.42;100841.03;4962484;28;20110;-78
2020/12/13 05:28:50;;;;;;;35.83;17.20;;;;;;;6.92;97.67;100848.66;4956434;28;20492;-78
2020/12/13 05:31:18;;;;;;;35.80;18.00;;;;;;;6.82;97.19;100844.84;4964154;28;20081;-77
2020/12/13 05:33:51;;;;;;;40.43;17.63;;;;;;;6.75;97.52;100846.31;4993204;22;20042;-79
2020/12/13 05:36:18;;;;;;;40.80;17.13;;;;;;;6.77;97.45;100846.34;5000547;28;20036;-79
2020/12/13 05:38:44;;;;;;;38.77;17.37;;;;;;;6.77;97.33;100851.47;5004493;28;20032;-79
2020/12/13 05:41:10;;;;;;;;;;;;;;;6.69;97.26;100843.50;5008921;28;20058;-79
2020/12/13 05:43:41;;;;;;;38.22;16.60;;;;;;;6.65;97.16;100851.00;5010035;28;19921;-81
2020/12/13 05:49:35;;;;;;;43.53;18.70;;;;;;;6.60;97.35;100848.28;5007048;28;20037;-80
2020/12/13 05:51:43;;;;;;;36.80;17.43;;;;;;;6.57;97.33;100850.69;5000664;28;20408;-79
2020/12/13 05:54:25;;;;;;;;;;;;;;;6.58;97.48;100856.69;5006465;28;20545;-78
2020/12/13 05:57:00;;;;;;;36.10;15.37;;;;;;;6.60;97.44;100857.59;4994850;28;19913;-79
2020/12/13 05:59:26;;;;;;;30.20;15.70;;;;;;;6.67;97.01;100860.44;5005444;28;20030;-79
2020/12/13 06:01:57;;;;;;;33.57;17.30;;;;;;;6.55;96.82;100863.41;5006451;28;20707;-80
2020/12/13 06:04:27;;;;;;;35.20;16.87;;;;;;;6.51;97.14;100866.66;5003597;28;20166;-79
2020/12/13 06:06:55;;;;;;;42.87;18.50;;;;;;;6.49;97.36;100867.38;4999415;28;20372;-78
2020/12/13 06:09:31;;;;;;;41.67;18.37;;;;;;;6.59;97.44;100868.63;4997861;28;20030;-80
2020/12/13 06:12:04;;;;;;;41.63;17.13;;;;;;;6.57;97.13;100873.66;5001237;28;20030;-79
2020/12/13 06:14:30;;;;;;;34.23;16.00;;;;;;;6.55;97.20;100873.63;4995190;28;20026;-79
2020/12/13 06:16:59;;;;;;;37.55;15.73;;;;;;;6.58;97.31;100877.97;5000176;28;20057;-79
2020/12/13 06:19:26;;;;;;;32.07;15.93;;;;;;;6.58;97.06;100875.41;4998783;28;20121;-79
2020/12/13 06:21:56;;;;;;;34.10;15.33;;;;;;;6.57;97.12;100878.78;5006004;28;20022;-80
2020/12/13 06:24:23;;;;;;;32.07;13.70;;;;;;;6.55;97.20;100873.63;4999805;28;20038;-79
2020/12/13 06:26:48;;;;;;;;;;;;;;;6.57;97.24;100878.78;5002027;28;20039;-79
2020/12/13 06:29:14;;;;;;;24.17;13.10;;;;;;;6.68;96.78;100881.75;5001922;28;20389;-79
2020/12/13 06:31:40;;;;;;;33.95;14.90;;;;;;;6.61;96.79;100885.75;5004891;28;20048;-80
2020/12/13 06:34:06;;;;;;;34.13;14.43;;;;;;;6.62;96.43;100892.59;5005004;28;20514;-79
2020/12/13 06:36:33;;;;;;;30.97;13.97;;;;;;;6.54;96.50;100887.19;5004060;28;20062;-79
2020/12/13 06:38:59;;;;;;;27.07;13.53;;;;;;;6.50;96.69;100887.88;5000698;28;20060;-80
2020/12/13 06:41:30;;;;;;;37.20;15.00;;;;;;;6.44;96.39;100892.69;5010583;28;20025;-79
2020/12/13 06:43:56;;;;;;;32.97;14.20;;;;;;;6.47;96.78;100889.41;5005000;28;20022;-79
2020/12/13 06:46:25;;;;;;;35.60;15.03;;;;;;;6.46;96.50;100890.22;5004420;28;20030;-80
2020/12/13 06:48:51;;;;;;;31.47;13.50;;;;;;;6.52;96.40;100890.47;5005971;28;20026;-78
2020/12/13 06:51:28;;;;;;;27.83;13.88;;;;;;;6.47;96.31;100892.81;5002757;28;20033;-79
2020/12/13 06:53:53;;;;;;;;;;;;;;;6.45;96.29;100894.44;5005114;28;20030;-79
2020/12/13 06:56:21;;;;;;;38.70;14.00;;;;;;;6.39;96.53;100890.78;5001293;28;19913;-79
2020/12/13 06:58:48;;;;;;;38.80;14.87;;;;;;;6.35;96.50;100891.47;4999095;28;21766;-79
2020/12/13 07:01:15;;;;;;;32.50;13.80;;;;;;;6.32;96.38;100897.31;5007902;28;20144;-81
2020/12/13 07:03:41;;;;;;;32.40;13.23;;;;;;;6.30;96.52;100904.03;5006535;28;20034;-81
2020/12/13 07:06:07;;;;;;;22.83;12.70;;;;;;;6.29;96.51;100903.97;5007067;28;20029;-79
2020/12/13 07:08:34;;;;;;;27.37;12.63;;;;;;;6.26;96.81;100914.03;5006549;28;20022;-81
2020/12/13 07:11:00;;;;;;;26.97;12.33;;;;;;;6.22;96.84;100913.91;5002180;28;20056;-78
2020/12/13 07:13:26;;;;;;;29.63;15.32;;;;;;;6.32;96.55;100909.19;5004665;28;20071;-78
2020/12/13 07:16:24;;;;;;;32.60;14.87;;;;;;;6.28;96.45;100914.97;5008467;28;20454;-79
2020/12/13 07:18:59;;;;;;;35.03;13.80;;;;;;;6.16;96.32;100917.88;5008190;28;20029;-79
2020/12/13 07:21:25;;;;;;;29.13;13.83;;;;;;;6.09;96.35;100926.94;5002933;28;20037;-80
2020/12/13 07:23:50;;;;;;;29.93;13.27;;;;;;;6.00;96.42;100929.09;5004840;28;20450;-79
2020/12/13 07:26:17;;;;;;;32.88;13.35;;;;;;;5.97;96.11;100934.06;5007633;28;20283;-79
2020/12/13 07:28:43;;;;;;;32.67;15.30;;;;;;;5.97;96.68;100936.63;5007936;28;20048;-79
2020/12/13 07:31:09;;;;;;;29.65;13.57;;;;;;;5.92;96.76;100933.88;5010520;28;20022;-79
2020/12/13 07:33:34;;;;;;;;;;;;;;;5.90;96.75;100935.50;5005291;28;20052;-79
2020/12/13 07:36:00;;;;;;;30.03;13.77;;;;;;;5.87;96.90;100940.44;5007809;28;19913;-80
2020/12/13 07:38:25;;;;;;;37.95;14.50;;;;;;;5.82;96.53;100953.75;5007199;28;20026;-79
2020/12/13 07:40:51;;;;;;;36.83;14.43;;;;;;;5.80;96.64;100951.13;5001407;28;20038;-80
2020/12/13 07:43:16;;;;;;;37.92;13.95;;;;;;;5.80;96.97;100960.44;5005984;28;20471;-79
2020/12/13 07:45:41;;;;;;;44.00;14.67;;;;;;;5.83;97.15;100955.50;4998301;28;20026;-79
2020/12/13 07:48:06;;;;;;;33.20;13.40;;;;;;;5.82;97.19;100964.81;5000500;28;20643;-81
2020/12/13 07:50:43;;;;;;;30.00;13.37;;;;;;;5.90;96.96;100962.66;5009597;28;20038;-79
2020/12/13 07:53:09;;;;;;;35.07;14.30;;;;;;;5.86;97.10;100966.72;5004798;28;20022;-80
2020/12/13 07:55:41;;;;;;;48.60;15.10;;;;;;;5.89;96.78;100972.00;5007382;28;20309;-81
2020/12/13 07:58:06;;;;;;;35.13;14.30;;;;;;;5.85;96.80;100966.63;5006672;28;20033;-81
2020/12/13 08:00:31;;;;;;;37.30;14.80;;;;;;;5.74;96.79;100970.38;5007493;28;20097;-81
2020/12/13 08:02:57;;;;;;;35.47;11.87;;;;;;;5.64;96.56;100974.19;5008120;28;20034;-81
2020/12/13 08:05:26;;;;;;;33.28;11.70;;;;;;;5.53;96.74;100983.91;5009264;28;20286;-83
2020/12/13 08:07:59;;;;;;;29.93;11.90;;;;;;;5.63;96.35;100983.53;5006906;28;20678;-82
2020/12/13 08:10:30;;;;;;;33.57;13.10;;;;;;;5.54;96.66;100992.44;5013411;28;20028;-83
2020/12/13 08:12:56;;;;;;;29.93;12.50;;;;;;;5.47;96.93;100990.38;5011225;28;20483;-84
2020/12/13 08:15:22;;;;;;;27.83;11.05;;;;;;;5.47;96.38;100995.47;5009732;28;20026;-82
2020/12/13 08:18:05;;;;;;;35.83;11.20;;;;;;;5.49;96.17;101004.94;5010895;28;20099;-82
2020/12/13 08:20:34;;;;;;;32.17;11.07;;;;;;;5.41;96.37;101011.34;5007852;28;20262;-85
2020/12/13 08:23:06;;;;;;;26.50;9.73;;;;;;;5.38;96.49;101010.34;5013678;28;20030;-84
2020/12/13 08:25:35;;;;;;;32.93;10.57;;;;;;;5.40;96.32;101008.72;5012429;28;20026;-84
2020/12/13 08:28:07;;;;;;;33.00;10.87;;;;;;;5.37;96.34;101004.38;5013440;28;20051;-83
2020/12/13 08:30:39;;;;;;;25.30;10.60;;;;;;;5.40;96.36;101009.59;5011234;28;20085;-84
2020/12/13 08:33:09;;;;;;;27.60;10.23;;;;;;;5.39;96.32;101007.84;5011927;28;20057;-84
2020/12/13 08:35:34;;;;;;;24.37;10.20;;;;;;;5.52;96.02;101014.38;5016190;28;20056;-84
2020/12/13 08:38:10;;;;;;;25.80;10.68;;;;;;;5.59;95.99;101016.44;5011585;28;20065;-84
2020/12/13 08:40:48;;;;;;;31.57;10.47;;;;;;;5.70;95.61;101014.38;5009054;28;20079;-81
2020/12/13 08:43:25;;;;;;;27.57;10.37;;;;;;;5.81;95.58;101020.81;5010473;28;20033;-81
2020/12/13 08:45:55;;;;;;;22.67;10.23;;;;;;;5.81;95.39;101023.38;5002275;28;20090;-83
2020/12/13 08:48:33;;;;;;;23.40;11.03;;;;;;;5.86;95.00;101025.34;5005312;28;20029;-84
2020/12/13 08:51:10;;;;;;;22.43;10.17;;;;;;;5.91;94.40;101030.69;5004670;28;20022;-82
2020/12/13 08:53:39;;;;;;;25.27;10.43;;;;;;;5.88;94.41;101026.31;5008111;28;20022;-82
2020/12/13 08:56:18;;;;;;;22.27;11.17;;;;;;;5.79;94.18;101030.97;5006080;28;20034;-82
2020/12/13 08:58:57;;;;;;;31.80;11.70;;;;;;;5.81;94.59;101026.78;5006954;28;20110;-82
2020/12/13 09:01:26;;;;;;;27.33;11.77;;;;;;;5.80;94.06;101026.72;5003977;28;20030;-81
2020/12/13 09:03:57;;;;;;;24.77;11.87;;;;;;;5.91;94.20;101028.16;5009663;28;20105;-84
2020/12/13 09:06:30;;;;;;;25.13;11.37;;;;;;;5.87;93.90;101037.31;5008717;28;20395;-83
2020/12/13 09:09:07;;;;;;;24.03;11.80;;;;;;;5.87;93.88;101033.88;5006861;28;20039;-82
2020/12/13 09:11:34;;;;;;;25.50;11.10;;;;;;;5.91;93.57;101041.75;5007972;28;20376;-84
2020/12/13 09:14:00;;;;;;;34.27;11.90;;;;;;;5.98;93.81;101048.00;5010466;28;20037;-81
2020/12/13 09:16:29;;;;;;;28.10;10.90;;;;;;;5.97;93.71;101048.81;5009565;28;20030;-81
2020/12/13 09:19:09;;;;;;;23.40;10.63;;;;;;;6.07;92.98;101042.44;5014489;28;20041;-83
2020/12/13 09:21:58;;;;;;;19.17;9.53;;;;;;;5.99;92.70;101053.97;5014485;28;20547;-82
2020/12/13 09:24:28;;;;;;;30.17;11.33;;;;;;;5.98;93.05;101048.00;5013992;28;20030;-82
2020/12/13 09:27:09;;;;;;;29.13;9.27;;;;;;;6.03;92.96;101043.97;5008125;28;20073;-81
2020/12/13 09:29:37;;;;;;;29.40;11.40;;;;;;;6.03;93.27;101051.63;5014430;28;20070;-82
2020/12/13 09:32:04;;;;;;;29.40;10.43;;;;;;;6.07;92.93;101050.09;5012456;28;20026;-81
2020/12/13 09:34:29;;;;;;;18.53;9.63;;;;;;;6.00;92.75;101051.50;5007985;28;20075;-82
2020/12/13 09:36:58;;;;;;;21.02;9.65;;;;;;;6.10;93.01;101040.91;5008749;28;20022;-84
2020/12/13 09:39:23;;;;;;;19.47;9.03;;;;;;;6.21;92.62;101052.47;5007720;28;20029;-82
2020/12/13 09:41:59;;;;;;;22.83;9.32;;;;;;;6.25;92.46;101050.94;5012318;28;20054;-81
2020/12/13 09:44:24;;;;;;;18.37;8.83;;;;;;;6.30;92.00;101056.22;5008900;28;20049;-82
2020/12/13 09:46:54;;;;;;;16.75;8.77;;;;;;;6.27;91.84;101058.66;5010620;28;20111;-82
2020/12/13 09:49:20;;;;;;;21.13;9.63;;;;;;;6.29;92.43;101059.59;5008021;28;20368;-80
2020/12/13 09:51:49;;;;;;;20.17;8.95;;;;;;;6.41;91.89;101062.66;5015972;28;20051;-80
2020/12/13 09:54:14;;;;;;;20.93;8.47;;;;;;;6.44;91.00;101057.69;5009187;28;20044;-79
2020/12/13 09:56:39;;;;;;;17.85;8.32;;;;;;;6.58;90.80;101063.41;5010622;28;20058;-82
2020/12/13 09:59:05;;;;;;;24.33;9.03;;;;;;;6.60;90.92;101062.66;5008640;28;20026;-84
2020/12/13 10:01:30;;;;;;;16.73;8.80;;;;;;;6.71;90.64;101066.53;4999996;28;20022;-80
2020/12/13 10:03:56;;;;;;;18.77;7.78;;;;;;;7.05;89.91;101065.41;5006084;28;20428;-82
2020/12/13 10:09:04;;;;;;;11.47;5.63;;;;;;;7.87;85.04;101066.16;5004917;28;20373;-80
2020/12/13 10:11:31;;;;;;;10.70;4.90;;;;;;;8.40;83.23;101062.16;5001632;28;20113;-79
2020/12/13 10:13:56;;;;;;;;;;;;;;;8.78;81.27;101054.94;4998034;28;20095;-79
2020/12/13 10:16:22;;;;;;;13.23;4.40;;;;;;;9.12;79.88;101054.41;4998163;28;19918;-83
2020/12/13 10:18:47;;;;;;;10.57;4.72;;;;;;;9.77;76.14;101048.78;5002205;28;20026;-81
2020/12/13 10:21:18;;;;;;;14.55;4.22;;;;;;;9.71;77.50;101055.38;5000621;28;20390;-80
2020/12/13 10:23:43;;;;;;;14.23;4.00;;;;;;;9.44;77.48;101051.19;5000976;28;20494;-79
2020/12/13 10:26:08;;;;;;;12.07;4.80;;;;;;;9.17;78.71;101056.28;4998888;28;20061;-80
2020/12/13 10:28:34;;;;;;;13.02;4.47;;;;;;;8.97;80.73;101053.06;4998289;28;20399;-81
2020/12/13 10:30:59;;;;;;;12.00;4.75;;;;;;;9.14;79.83;101045.94;5001040;28;20045;-81
2020/12/13 10:33:24;;;;;;;19.57;6.43;;;;;;;9.15;80.83;101045.13;4997802;28;20080;-79
2020/12/13 10:35:49;;;;;;;14.73;5.80;;;;;;;9.20;80.07;101041.00;5002794;28;20333;-80
2020/12/13 10:38:15;;;;;;;17.05;5.10;;;;;;;8.80;80.87;101050.75;5003745;28;20034;-79
2020/12/13 10:40:40;;;;;;;14.02;6.00;;;;;;;8.33;81.87;101043.16;4999669;28;20019;-82
2020/12/13 10:43:05;;;;;;;14.02;6.30;;;;;;;8.26;81.97;101040.28;4998163;28;20506;-81
2020/12/13 10:45:31;;;;;;;15.57;5.82;;;;;;;8.17;83.38;101042.53;5008394;28;20026;-80
2020/12/13 10:47:56;;;;;;;23.02;6.65;;;;;;;8.14;83.10;101044.97;4995311;28;20038;-80
2020/12/13 10:50:22;;;;;;;17.73;6.20;;;;;;;7.97;83.80;101042.66;5004739;28;20137;-79
2020/12/13 10:52:47;;;;;;;12.82;6.55;;;;;;;7.87;84.39;101037.13;5004177;28;20036;-81
2020/12/13 10:55:12;;;;;;;18.15;7.30;;;;;;;7.60;84.74;101035.25;4999595;28;20495;-80
2020/12/13 10:57:38;;;;;;;15.90;7.07;;;;;;;7.59;84.87;101041.19;5002489;28;20494;-82
2020/12/13 11:00:04;;;;;;;18.07;8.07;;;;;;;7.45;85.53;101034.66;5001052;28;20656;-80
2020/12/13 11:02:29;;;;;;;16.87;7.67;;;;;;;7.39;86.43;101040.41;4997139;28;20029;-80
2020/12/13 11:04:55;;;;;;;16.13;7.63;;;;;;;7.23;87.06;101052.53;4999877;28;20605;-79
2020/12/13 11:07:20;;;;;;;14.30;7.57;;;;;;;7.20;87.25;101048.16;5001250;28;20034;-81
2020/12/13 11:09:46;;;;;;;25.27;7.67;;;;;;;7.18;87.21;101052.34;5001850;28;20297;-80
2020/12/13 11:12:11;;;;;;;21.17;9.60;;;;;;;7.18;86.81;101042.13;5005884;28;20384;-79
2020/12/13 11:14:36;;;;;;;20.77;8.35;;;;;;;7.12;87.57;101049.50;4996003;28;20644;-83
2020/12/13 11:17:02;;;;;;;20.43;8.93;;;;;;;7.09;87.74;101039.16;5002095;28;20033;-81
2020/12/13 11:19:27;;;;;;;24.17;9.85;;;;;;;7.03;88.05;101038.94;4998722;28;20026;-79
2020/12/13 11:21:52;;;;;;;15.30;8.57;;;;;;;6.96;88.54;101031.81;4993181;28;20037;-82
2020/12/13 11:24:17;;;;;;;21.90;8.05;;;;;;;6.96;89.00;101039.50;5004404;28;20044;-81
2020/12/13 11:26:47;;;;;;;20.45;7.60;;;;;;;7.07;88.32;101036.56;5010970;28;20030;-82
2020/12/13 11:29:12;;;;;;;16.43;7.23;;;;;;;7.09;88.84;101028.94;5006516;28;20056;-81
2020/12/13 11:31:37;;;;;;;23.47;7.93;;;;;;;7.16;88.80;101019.06;5001935;28;20023;-83